LAX weather

Los Angeles International Airport
Los Angeles, California, United States

Public forecast

Using degrees Fahrenheit for public forecast. Weather courtesy of forecast.io.

Current aviation weather report (METAR) for Los Angeles International Airport

Retrieved 2020/04/01 09:53 UTC (1 hour ago):

KLAX 010953Z 00000KT 10SM FEW005 FEW010 BKN200 BKN280 16/12 A2985 RMK AO2 SLP104 FU FEW005 T01610117

Aviation forecast (TAF) for Los Angeles International Airport

Retrieved 2020/04/01 06:40 UTC (4 hours ago):

TAF KLAX 010537Z 0106/0212 VRB03KT P6SM BKN250 FM011700 26006KT P6SM BKN250 FM012000 26012KT P6SM SKC FM020400 26006KT P6SM SCT015 FM020800 VRB04KT P6SM OVC015